Latest Weather Observations for Omeo

IDV60801

Issued at 4:02 pm EST Tuesday 24 May 2016 (issued every 30 minutes, with the page automatically refreshed every 10 minutes)

About weather observations | Map of weather stations | Latest weather observations for VIC | Other Formats
Station Details ID: 083090 Name: OMEO Lat: -37.10 Lon: 147.60 Height: 689.8 m
Data from the previous 72 hours. | See also: Recent months at Omeo
Date/Time
EST
Temp
°C
App
Temp
°C
Dew
Point
Rel
Hum
%
Delta-T
°C
Wind Press
QNH
hPa
Press
MSL
hPa
Rain
since 9 am
mm
Dir
 
Spd
km/h
Gust
km/h
Spd
kts
Gust
kts
24/04:00pm 14.5 11.5 1.1 40 6.0 SW 6 11 3 6 1016.7 1016.9 0.0
24/03:30pm 14.4 10.4 0.3 38 6.2 WNW 11 19 6 10 1016.4 1016.7 0.0
24/03:00pm 14.9 10.6 0.7 38 6.3 NW 13 19 7 10 1016.1 1016.3 0.0
24/02:30pm 14.9 11.8 0.0 36 6.5 W 6 9 3 5 1016.0 1016.2 0.0
24/02:00pm 13.8 10.5 2.7 47 5.1 N 9 17 5 9 1016.0 1016.2 0.0
24/01:30pm 13.4 9.9 3.5 51 4.6 N 11 15 6 8 1016.3 1016.6 0.0
24/01:00pm 12.6 8.6 3.0 52 4.4 N 13 19 7 10 1016.7 1016.9 0.0
24/12:30pm 12.9 9.1 3.8 54 4.3 N 13 17 7 9 1017.1 1017.3 0.0
24/12:00pm 11.9 8.0 3.2 55 4.0 N 13 19 7 10 1017.5 1017.8 0.0
24/11:30am 11.8 7.7 4.1 59 3.6 N 15 20 8 11 1017.7 1018.0 0.0
24/11:00am 10.4 5.5 4.3 66 2.8 N 19 26 10 14 1018.2 1018.4 0.0
24/10:30am 9.3 4.2 4.1 70 2.4 N 20 30 11 16 1018.5 1018.7 0.0
24/10:00am 8.3 3.3 4.5 77 1.7 N 20 30 11 16 1018.8 1019.1 0.0
24/09:30am 7.3 2.3 4.6 83 1.2 NNW 20 26 11 14 1018.7 1019.0 0.0
24/09:00am 5.9 1.7 3.9 87 0.9 NNW 15 22 8 12 1018.7 1019.0 0.0
24/08:30am 4.0 0.0 2.8 92 0.5 N 13 17 7 9 1018.6 1018.8 0.0
24/08:00am 2.1 -1.7 1.8 98 0.1 N 11 17 6 9 1018.6 1018.8 0.0
24/07:30am 1.3 -3.0 0.9 97 0.2 NNW 13 19 7 10 1018.6 1018.8 0.0
24/07:00am 1.3 -3.0 1.0 98 0.1 N 13 19 7 10 1018.3 1018.5 0.0
24/06:30am 1.3 -2.2 1.0 98 0.1 N 9 13 5 7 1018.3 1018.5 0.0
24/06:00am 1.3 -0.9 0.9 97 0.2 WNW 2 7 1 4 1017.9 1018.2 0.0
24/05:30am 1.7 -0.1 1.1 96 0.2 CALM 0 0 0 0 1017.8 1018.1 0.0
24/05:00am 2.1 -0.4 1.4 95 0.3 N 4 7 2 4 1017.6 1017.9 0.0
24/04:30am 2.9 0.1 2.3 96 0.2 WNW 6 9 3 5 1017.3 1017.5 0.0
24/04:00am 3.0 1.0 2.3 95 0.3 NNE 2 6 1 3 1017.2 1017.4 0.0
24/03:30am 3.7 1.0 2.7 93 0.4 NNE 6 9 3 5 1017.3 1017.5 0.0
24/03:00am 4.5 1.7 3.3 92 0.5 N 7 11 4 6 1017.6 1017.9 0.0
24/02:30am 4.3 2.0 3.0 91 0.6 NE 4 7 2 4 1017.7 1018.0 0.0
24/02:00am 5.4 2.7 3.6 88 0.8 N 7 9 4 5 1017.6 1017.9 0.0
24/01:30am 5.7 2.6 3.7 87 0.9 N 9 15 5 8 1017.7 1018.0 0.0
24/01:00am 6.3 2.5 3.8 84 1.1 N 13 19 7 10 1017.8 1018.1 0.0
24/12:30am 6.4 2.6 3.7 83 1.2 N 13 17 7 9 1017.9 1018.2 0.0
24/12:00am 6.5 2.6 3.5 81 1.3 N 13 19 7 10 1017.9 1018.2 0.0
 
Date/Time
EST
Temp
°C
App
Temp
°C
Dew
Point
Rel
Hum
%
Delta-T
°C
Wind Press
QNH
hPa
Press
MSL
hPa
Rain
since 9 am
mm
Dir
 
Spd
km/h
Gust
km/h
Spd
kts
Gust
kts
23/11:30pm 6.5 1.5 3.7 82 1.2 N 19 28 10 15 1017.9 1018.2 0.0
23/11:00pm 6.6 2.6 2.7 76 1.7 N 13 20 7 11 1017.9 1018.2 0.0
23/10:30pm 7.3 2.5 2.8 73 2.0 NNW 17 24 9 13 1017.9 1018.2 0.0
23/10:00pm 7.2 3.1 2.1 70 2.2 NNW 13 20 7 11 1018.1 1018.3 0.0
23/09:30pm 7.0 2.5 2.1 71 2.1 NW 15 20 8 11 1018.1 1018.3 0.0
23/09:00pm 6.2 2.3 1.1 70 2.1 NNW 11 17 6 9 1018.1 1018.3 0.0
23/08:30pm 7.6 4.1 1.2 64 2.7 NNW 9 11 5 6 1017.9 1018.2 0.0
23/08:00pm 7.8 4.3 1.0 62 2.9 N 9 19 5 10 1017.6 1017.9 0.0
23/07:30pm 7.7 3.3 0.4 60 3.0 NNW 13 22 7 12 1017.5 1017.8 0.0
23/07:00pm 8.5 3.4 0.5 57 3.3 NW 17 24 9 13 1017.3 1017.5 0.0
23/06:30pm 8.7 3.4 -0.3 53 3.7 NW 17 30 9 16 1017.0 1017.2 0.0
23/06:00pm 7.8 3.4 0.1 58 3.2 NW 13 19 7 10 1016.7 1016.9 0.0
23/05:30pm 8.7 4.2 -0.3 53 3.7 NW 13 28 7 15 1016.6 1016.8 0.0
23/05:00pm 9.8 4.5 -0.4 49 4.2 NW 17 26 9 14 1016.4 1016.7 0.0
23/04:30pm 10.2 5.6 -0.9 46 4.6 WNW 13 26 7 14 1016.4 1016.7 0.0
23/04:00pm 11.2 6.2 -1.2 42 5.1 NW 15 24 8 13 1016.1 1016.3 0.0
23/03:30pm 11.6 5.8 -1.2 41 5.3 WNW 19 28 10 15 1015.9 1016.1 0.0
23/03:00pm 12.2 4.8 -1.0 40 5.5 WNW 28 44 15 24 1015.3 1015.5 0.0
23/02:30pm 12.9 6.8 0.3 42 5.5 WNW 22 37 12 20 1014.8 1015.0 0.0
23/02:00pm 13.1 7.6 0.8 43 5.4 NW 19 28 10 15 1015.0 1015.2 0.0
23/01:30pm 13.2 7.7 0.6 42 5.5 W 19 35 10 19 1015.2 1015.4 0.0
23/01:00pm 13.1 5.7 2.1 47 5.0 WNW 30 48 16 26 1015.5 1015.7 0.0
23/12:51pm 12.7 5.6 1.4 46 5.0 NW 28 48 15 26 1015.4 1015.6 0.0
23/12:30pm 12.5 6.3 2.1 49 4.7 WNW 24 43 13 23 1015.3 1015.5 0.0
23/12:00pm 12.2 7.1 2.9 53 4.2 W 19 32 10 17 1015.7 1015.9 0.0
23/11:30am 12.4 7.4 1.4 47 4.9 W 17 28 9 15 1015.5 1015.7 0.0
23/11:10am 13.0 5.8 0.7 43 5.4 NW 28 50 15 27 1015.5 1015.7 0.0
23/11:00am 13.6 8.0 0.9 42 5.6 NW 20 33 11 18 1015.4 1015.6 0.0
23/10:30am 12.6 5.4 0.7 44 5.2 NW 28 41 15 22 1015.4 1015.6 0.0
23/10:00am 12.8 5.7 1.2 45 5.1 NW 28 43 15 23 1015.3 1015.5 0.0
23/09:30am 11.7 5.0 1.4 49 4.5 NW 26 44 14 24 1014.8 1015.0 0.0
23/09:00am 12.1 6.6 2.0 50 4.5 NW 20 39 11 21 1014.6 1014.8 0.6
23/08:30am 12.0 6.4 1.3 48 4.7 WNW 20 46 11 25 1013.7 1013.8 0.6
23/08:00am 11.5 7.8 4.5 62 3.3 NNW 13 24 7 13 1013.5 1013.6 0.6
23/07:30am 12.2 7.3 4.2 58 3.8 N 19 33 10 18 1013.0 1013.2 0.6
23/07:00am 12.2 6.3 5.8 65 3.1 NW 26 39 14 21 1013.0 1013.2 0.6
23/06:30am 12.2 8.9 10.8 91 0.8 NW 19 28 10 15 1012.4 1012.5 0.6
23/06:00am 12.0 9.0 10.6 91 0.8 N 17 24 9 13 1011.2 1011.4 0.4
23/05:30am 12.2 9.1 10.4 89 1.0 NNW 17 24 9 13 1011.1 1011.2 0.4
23/05:00am 13.3 9.1 9.7 79 1.9 N 22 35 12 19 1011.3 1011.5 0.0
23/04:30am 14.7 8.4 9.1 69 3.0 N 32 56 17 30 1011.2 1011.4 0.0
23/04:00am 15.2 9.6 8.7 65 3.4 N 28 50 15 27 1011.3 1011.5 0.0
23/03:58am 15.4 9.8 8.6 64 3.6 N 28 50 15 27 1011.2 1011.4 0.0
23/03:30am 15.3 10.6 9.2 67 3.2 N 24 37 13 20 1011.9 1012.0 0.0
23/03:00am 15.4 10.7 9.3 67 3.3 N 24 35 13 19 1012.4 1012.5 0.0
23/02:50am 15.6 10.1 9.3 66 3.4 N 28 48 15 26 1012.5 1012.7 0.0
23/02:30am 14.8 10.5 9.4 70 2.9 NNW 22 35 12 19 1012.9 1013.1 0.0
23/02:00am 14.1 9.3 8.9 71 2.7 N 24 35 13 19 1013.0 1013.2 0.0
23/01:30am 14.2 9.4 8.8 70 2.8 N 24 35 13 19 1013.6 1013.7 0.0
23/01:00am 13.8 9.8 8.4 70 2.8 N 19 28 10 15 1014.5 1014.7 0.0
23/12:30am 14.0 9.4 8.2 68 3.0 N 22 30 12 16 1015.2 1015.4 0.0
23/12:00am 15.1 9.8 8.3 64 3.6 N 26 43 14 23 1015.9 1016.1 0.0
 
Date/Time
EST
Temp
°C
App
Temp
°C
Dew
Point
Rel
Hum
%
Delta-T
°C
Wind Press
QNH
hPa
Press
MSL
hPa
Rain
since 9 am
mm
Dir
 
Spd
km/h
Gust
km/h
Spd
kts
Gust
kts
22/11:30pm 16.3 10.7 8.8 61 4.0 NNW 28 39 15 21 1015.9 1016.1 0.0
22/11:00pm 14.7 10.4 7.7 63 3.6 N 20 32 11 17 1016.2 1016.5 0.0
22/10:30pm 15.2 10.1 7.7 61 3.9 NNW 24 35 13 19 1016.7 1016.9 0.0
22/10:00pm 15.6 10.3 6.9 56 4.4 NNW 24 37 13 20 1016.4 1016.7 0.0
22/09:30pm 13.6 10.0 6.7 63 3.5 NNW 15 24 8 13 1017.0 1017.2 0.0
22/09:00pm 14.0 9.1 7.1 63 3.5 N 22 30 12 16 1017.3 1017.5 0.0
22/08:30pm 15.2 10.2 6.5 56 4.4 NNW 22 33 12 18 1017.2 1017.4 0.0
22/08:07pm 16.0 9.7 5.9 51 5.1 NNW 28 46 15 25 1017.1 1017.3 0.0
22/08:00pm 16.1 11.0 6.0 51 5.1 NNW 22 46 12 25 1017.6 1017.9 0.0
22/07:30pm 15.2 12.1 5.7 53 4.7 NNW 11 20 6 11 1017.9 1018.2 0.0
22/07:00pm 14.8 11.7 7.1 60 3.9 NNE 13 22 7 12 1017.8 1018.1 0.0
22/06:30pm 14.9 11.0 7.0 59 4.0 NNE 17 32 9 17 1017.8 1018.1 0.0
22/06:00pm 14.8 10.9 6.9 59 4.0 NNE 17 28 9 15 1017.8 1018.1 0.0
22/05:30pm 15.1 11.6 7.2 59 4.0 NNW 15 22 8 12 1017.6 1017.9 0.0
22/05:00pm 15.9 10.3 7.1 56 4.5 N 26 39 14 21 1017.3 1017.5 0.0
22/04:30pm 16.1 11.0 7.8 58 4.3 NNW 24 33 13 18 1017.4 1017.7 0.0
22/04:00pm 16.7 10.8 7.6 55 4.7 N 28 43 15 23 1017.6 1017.9 0.0
22/03:30pm 17.1 11.7 8.0 55 4.8 N 26 35 14 19 1017.8 1018.1 0.0
22/03:00pm 17.3 11.1 7.9 54 4.9 N 30 41 16 22 1018.2 1018.4 0.0
22/02:30pm 17.7 11.4 7.4 51 5.4 N 30 44 16 24 1018.8 1019.1 0.0
22/02:00pm 17.9 12.3 7.0 49 5.6 N 26 44 14 24 1019.2 1019.5 0.0
22/01:30pm 18.6 12.7 7.4 48 5.9 N 28 41 15 22 1019.4 1019.7 0.0
22/01:00pm 18.0 13.5 7.1 49 5.7 N 20 32 11 17 1020.1 1020.4 0.0
22/12:30pm 17.9 12.6 6.7 48 5.8 N 24 41 13 22 1020.2 1020.5 0.0
22/12:00pm 18.4 13.3 7.8 50 5.6 N 24 39 13 21 1020.7 1021.0 0.0
22/11:30am 16.0 11.1 7.0 55 4.6 N 22 32 12 17 1021.4 1021.7 0.0
22/11:00am 13.1 8.6 6.2 63 3.4 N 19 26 10 14 1022.0 1022.3 0.0
22/10:30am 12.9 7.9 6.5 65 3.2 N 22 30 12 16 1022.4 1022.8 0.0
22/10:00am 9.6 4.7 5.0 73 2.1 N 20 30 11 16 1022.6 1023.0 0.0
22/09:30am 6.9 2.3 3.7 80 1.4 NNW 17 26 9 14 1023.1 1023.4 0.0
22/09:00am 5.1 -0.3 2.5 83 1.1 N 20 26 11 14 1023.3 1023.6 0.0
22/08:30am 4.9 0.4 2.4 84 1.1 N 15 24 8 13 1023.5 1023.8 0.0
22/08:00am 3.7 -1.8 1.7 87 0.8 N 20 28 11 15 1023.5 1023.8 0.0
22/07:30am 3.1 -2.5 1.3 88 0.7 N 20 26 11 14 1023.5 1023.8 0.0
22/07:00am 3.4 -2.5 1.4 87 0.8 N 22 30 12 16 1023.3 1023.6 0.0
22/06:30am 2.6 -2.4 1.3 91 0.5 NNW 17 20 9 11 1023.3 1023.6 0.0
22/06:00am 3.1 -1.1 1.8 91 0.5 N 13 22 7 12 1023.2 1023.5 0.0
22/05:30am 3.3 -0.9 1.7 89 0.7 NNW 13 19 7 10 1023.0 1023.3 0.0
22/05:00am 3.3 -0.9 1.7 89 0.7 N 13 19 7 10 1022.8 1023.1 0.0
22/04:30am 3.3 -2.2 2.0 91 0.5 NNW 20 24 11 13 1022.8 1023.1 0.0
22/04:00am 3.7 -0.7 2.5 92 0.5 N 15 22 8 12 1023.0 1023.3 0.0
22/03:30am 3.7 -0.8 2.4 91 0.5 N 15 19 8 10 1023.3 1023.6 0.0
22/03:00am 4.1 0.1 2.6 90 0.6 N 13 20 7 11 1023.4 1023.7 0.0
22/02:30am 4.3 0.0 3.0 91 0.6 N 15 20 8 11 1023.3 1023.6 0.0
22/02:00am 4.2 0.6 2.9 91 0.5 NNW 11 15 6 8 1023.3 1023.6 0.0
22/01:30am 4.7 1.6 3.5 92 0.5 N 9 13 5 7 1023.5 1023.8 0.0
22/01:00am 5.0 1.9 3.7 91 0.6 N 9 13 5 7 1023.6 1024.0 0.0
22/12:30am 5.3 2.2 3.8 90 0.7 NNW 9 15 5 8 1023.9 1024.3 0.0
22/12:00am 6.2 2.5 4.5 89 0.8 N 13 19 7 10 1024.0 1024.4 0.0
 
Date/Time
EST
Temp
°C
App
Temp
°C
Dew
Point
Rel
Hum
%
Delta-T
°C
Wind Press
QNH
hPa
Press
MSL
hPa
Rain
since 9 am
mm
Dir
 
Spd
km/h
Gust
km/h
Spd
kts
Gust
kts
21/11:30pm 6.0 3.0 4.3 89 0.8 NNW 9 13 5 7 1024.4 1024.7 0.0
21/11:00pm 6.2 4.2 4.5 89 0.8 N 4 7 2 4 1024.6 1024.9 0.0
21/10:30pm 6.4 4.4 4.6 88 0.8 NNW 4 9 2 5 1024.9 1025.3 0.0
21/10:00pm 6.7 4.4 4.7 87 0.9 N 6 9 3 5 1025.0 1025.4 0.0
21/09:30pm 6.9 4.4 4.7 86 1.0 N 7 9 4 5 1024.8 1025.1 0.0
21/09:00pm 7.1 4.7 4.2 82 1.3 N 6 9 3 5 1024.8 1025.1 0.0
21/08:30pm 7.7 5.3 4.1 78 1.6 NNW 6 7 3 4 1024.6 1024.9 0.0
21/08:00pm 8.1 6.8 4.1 76 1.8 CALM 0 0 0 0 1024.5 1024.8 0.0
21/07:30pm 8.8 6.4 4.4 74 2.0 N 6 9 3 5 1024.3 1024.6 0.0
21/07:00pm 9.1 6.6 3.9 70 2.4 NNW 6 11 3 6 1024.1 1024.5 0.0
21/06:30pm 9.5 8.2 3.9 68 2.6 CALM 0 0 0 0 1023.9 1024.3 0.0
21/06:00pm 10.5 9.4 5.3 70 2.5 CALM 0 4 0 2 1023.6 1024.0 0.0
21/05:30pm 11.8 10.0 5.4 65 3.1 N 4 7 2 4 1023.1 1023.4 0.0
21/05:00pm 13.2 10.7 4.9 57 4.0 NNW 7 9 4 5 1023.0 1023.3 0.0
21/04:30pm 14.6 12.2 5.1 53 4.6 NNW 7 9 4 5 1022.9 1023.2 0.0

Other Formats:

Comma delimited format used in spreadsheet applications
http://www.bom.gov.au/fwo/IDV60801/IDV60801.94908.axf

JavaScript Object Notation format (JSON) in row-major order
http://www.bom.gov.au/fwo/IDV60801/IDV60801.94908.json